Time;durP1;ratioP1;P1;durP2;ratioP2;P2;SDS_P1;SDS_P2;PMS_P1;PMS_P2;Temp;Humidity;BMP_temperature;BMP_pressure;BME280_temperature;BME280_humidity;BME280_pressure;Samples;Min_cycle;Max_cycle;Signal;HPM_P1;HPM_P2
2023/10/23 00:01:18;;;;;;;2.63;1.98;;;12.30;99.90;;;;;;5069066;28;20427;-68
2023/10/23 00:03:45;;;;;;;2.13;1.80;;;12.20;99.90;;;;;;5069682;28;20790;-69
2023/10/23 00:06:11;;;;;;;1.90;1.80;;;12.20;99.90;;;;;;5068284;28;20466;-69
2023/10/23 00:08:38;;;;;;;3.00;1.88;;;12.20;99.90;;;;;;5068425;28;20403;-69
2023/10/23 00:11:05;;;;;;;2.30;2.10;;;12.20;99.90;;;;;;5066511;28;20440;-69
2023/10/23 00:13:31;;;;;;;2.40;2.20;;;12.10;99.90;;;;;;5069027;28;21023;-69
2023/10/23 00:15:59;;;;;;;2.80;2.10;;;12.10;99.90;;;;;;5066661;28;20439;-68
2023/10/23 00:18:26;;;;;;;2.40;2.10;;;12.10;99.90;;;;;;5068812;28;20930;-69
2023/10/23 00:20:53;;;;;;;2.47;2.00;;;12.10;99.90;;;;;;5068772;28;20411;-69
2023/10/23 00:23:19;;;;;;;2.20;2.00;;;12.10;99.90;;;;;;5067876;28;20435;-68
2023/10/23 00:25:46;;;;;;;3.03;1.98;;;12.10;99.90;;;;;;5070289;28;20454;-69
2023/10/23 00:28:13;;;;;;;2.22;1.83;;;12.10;99.90;;;;;;5069296;28;20418;-70
2023/10/23 00:30:39;;;;;;;2.20;2.00;;;12.10;99.90;;;;;;5073106;28;20431;-69
2023/10/23 00:33:08;;;;;;;2.83;2.20;;;12.10;99.90;;;;;;5076832;28;21574;-69
2023/10/23 00:35:34;;;;;;;2.55;1.90;;;12.10;99.90;;;;;;5068472;28;20434;-69
2023/10/23 00:38:01;;;;;;;2.22;1.90;;;12.00;99.90;;;;;;5068205;28;20430;-68
2023/10/23 00:40:29;;;;;;;2.60;1.98;;;12.00;99.90;;;;;;5073304;28;20906;-68
2023/10/23 00:42:56;;;;;;;2.53;2.00;;;12.00;99.90;;;;;;5068813;28;20423;-70
2023/10/23 00:45:23;;;;;;;2.40;1.90;;;12.00;99.90;;;;;;5065638;28;20431;-68
2023/10/23 00:47:50;;;;;;;2.40;2.15;;;12.00;99.90;;;;;;5068825;28;20487;-70
2023/10/23 00:50:18;;;;;;;3.30;2.17;;;12.00;99.90;;;;;;5068000;28;20418;-70
2023/10/23 00:52:45;;;;;;;2.50;2.20;;;12.00;99.90;;;;;;5067566;28;20732;-70
2023/10/23 00:55:12;;;;;;;3.20;2.08;;;11.90;99.90;;;;;;5067760;28;20481;-70
2023/10/23 00:57:39;;;;;;;3.55;2.33;;;11.90;99.90;;;;;;5067240;28;20431;-67
2023/10/23 01:00:08;;;;;;;3.08;2.10;;;11.90;99.90;;;;;;5068204;28;20407;-67
2023/10/23 01:02:35;;;;;;;4.40;2.72;;;11.90;99.90;;;;;;5067880;28;20411;-69
2023/10/23 01:05:03;;;;;;;2.35;2.15;;;11.90;99.90;;;;;;5066057;28;20439;-68
2023/10/23 01:07:31;;;;;;;2.70;2.20;;;11.90;99.90;;;;;;5060583;28;20404;-68
2023/10/23 01:09:57;;;;;;;2.67;2.38;;;11.80;99.90;;;;;;5066328;28;20589;-67
2023/10/23 01:12:24;;;;;;;2.60;2.40;;;11.80;99.90;;;;;;5062401;28;20484;-68
2023/10/23 01:14:51;;;;;;;3.95;2.42;;;11.70;99.90;;;;;;5067217;28;20407;-70
2023/10/23 01:17:17;;;;;;;2.50;2.20;;;11.60;99.90;;;;;;5066979;28;20435;-68
2023/10/23 01:19:44;;;;;;;3.03;2.83;;;11.50;99.90;;;;;;5068000;28;20427;-68
2023/10/23 01:22:11;;;;;;;3.08;2.78;;;11.50;99.90;;;;;;5067500;28;20414;-69
2023/10/23 01:24:44;;;;;;;3.30;3.00;;;11.50;99.90;;;;;;5065398;28;20435;-67
2023/10/23 01:27:12;;;;;;;3.70;3.08;;;11.40;99.90;;;;;;5062350;28;20419;-68
2023/10/23 01:29:38;;;;;;;3.35;2.85;;;11.30;99.90;;;;;;5066850;28;20431;-67
2023/10/23 01:32:06;;;;;;;3.85;3.25;;;11.30;99.90;;;;;;5061473;28;20434;-68
2023/10/23 01:34:33;;;;;;;3.40;3.10;;;11.30;99.90;;;;;;5067777;28;20422;-68
2023/10/23 01:36:59;;;;;;;4.47;3.10;;;11.20;99.90;;;;;;5066947;28;20593;-68
2023/10/23 01:39:26;;;;;;;4.32;3.30;;;11.10;99.90;;;;;;5066924;28;20427;-68
2023/10/23 01:41:53;;;;;;;3.92;3.00;;;11.10;99.90;;;;;;5065848;28;20434;-68
2023/10/23 01:44:21;;;;;;;5.18;3.40;;;11.10;99.90;;;;;;5066922;28;20439;-70
2023/10/23 01:46:48;;;;;;;4.57;3.13;;;11.00;99.90;;;;;;5067745;28;20435;-66
2023/10/23 01:49:14;;;;;;;3.80;3.45;;;11.00;99.90;;;;;;5067372;28;20414;-68
2023/10/23 01:51:41;;;;;;;3.35;2.80;;;11.00;99.90;;;;;;5066560;28;20424;-69
2023/10/23 01:54:08;;;;;;;5.45;3.00;;;10.90;99.90;;;;;;5068242;28;20429;-67
2023/10/23 01:56:36;;;;;;;4.95;2.70;;;10.90;99.90;;;;;;5066978;28;20431;-69
2023/10/23 01:59:02;;;;;;;5.82;3.10;;;10.90;99.90;;;;;;5070083;28;21071;-68
2023/10/23 02:01:32;;;;;;;4.55;2.80;;;10.80;99.90;;;;;;5070104;28;20438;-68
2023/10/23 02:03:59;;;;;;;3.83;3.03;;;10.80;99.90;;;;;;5071023;28;20419;-68
2023/10/23 02:06:26;;;;;;;3.72;2.85;;;10.80;99.90;;;;;;5064074;28;20438;-68
2023/10/23 02:08:52;;;;;;;3.50;2.72;;;10.80;99.90;;;;;;5069312;28;20427;-68
2023/10/23 02:11:19;;;;;;;4.32;2.60;;;10.80;99.90;;;;;;5069753;28;20814;-68
2023/10/23 02:13:46;;;;;;;4.20;2.90;;;10.70;99.90;;;;;;5069665;28;20438;-68
2023/10/23 02:16:13;;;;;;;3.40;2.80;;;10.70;99.90;;;;;;5067980;28;20423;-69
2023/10/23 02:18:40;;;;;;;4.68;2.78;;;10.60;99.90;;;;;;5070836;28;20423;-68
2023/10/23 02:21:07;;;;;;;3.50;3.10;;;10.60;99.90;;;;;;5070533;28;20447;-68
2023/10/23 02:23:33;;;;;;;4.10;2.70;;;10.60;99.90;;;;;;5068251;28;20423;-68
2023/10/23 02:26:00;;;;;;;4.80;2.95;;;10.60;99.90;;;;;;5069025;28;20431;-68
2023/10/23 02:28:27;;;;;;;5.47;3.80;;;10.60;99.90;;;;;;5071036;28;20404;-68
2023/10/23 02:30:54;;;;;;;4.15;2.90;;;10.50;99.90;;;;;;5070317;28;20710;-70
2023/10/23 02:33:20;;;;;;;3.80;2.90;;;10.50;99.90;;;;;;5070010;28;20515;-69
2023/10/23 02:35:49;;;;;;;4.38;2.90;;;10.50;99.90;;;;;;5070628;28;20428;-67
2023/10/23 02:38:15;;;;;;;4.97;3.10;;;10.40;99.90;;;;;;5072273;28;20413;-68
2023/10/23 02:40:50;;;;;;;6.38;3.30;;;10.40;99.90;;;;;;5069085;28;20435;-68
2023/10/23 02:43:17;;;;;;;5.00;3.17;;;10.40;99.90;;;;;;5069658;28;20438;-67
2023/10/23 02:45:44;;;;;;;4.75;3.60;;;10.40;99.90;;;;;;5068334;28;20918;-67
2023/10/23 02:48:10;;;;;;;4.85;3.53;;;10.40;99.90;;;;;;5069538;28;20446;-68
2023/10/23 02:50:37;;;;;;;3.83;3.37;;;10.30;99.90;;;;;;5069801;28;20408;-68
2023/10/23 02:53:06;;;;;;;3.95;3.55;;;10.30;99.90;;;;;;5068474;28;20458;-69
2023/10/23 02:55:33;;;;;;;4.32;3.70;;;10.40;99.90;;;;;;5069304;28;20446;-68
2023/10/23 02:58:00;;;;;;;6.38;4.00;;;10.30;99.90;;;;;;5069082;28;20427;-66
2023/10/23 03:00:27;;;;;;;4.32;3.72;;;10.30;99.90;;;;;;5064260;28;20433;-68
2023/10/23 03:02:54;;;;;;;7.38;4.18;;;10.30;99.90;;;;;;5071295;28;20484;-68
2023/10/23 03:05:21;;;;;;;7.30;4.00;;;10.30;99.90;;;;;;5073607;28;20431;-68
2023/10/23 03:07:48;;;;;;;4.75;3.90;;;10.30;99.90;;;;;;5068206;28;20427;-67
2023/10/23 03:10:16;;;;;;;5.50;4.20;;;10.20;99.90;;;;;;5069601;28;20420;-68
2023/10/23 03:12:43;;;;;;;5.20;4.13;;;10.20;99.90;;;;;;5068332;28;20435;-67
2023/10/23 03:15:10;;;;;;;5.80;4.50;;;10.20;99.90;;;;;;5066964;28;20435;-68
2023/10/23 03:17:37;;;;;;;6.03;4.30;;;10.20;99.90;;;;;;5063207;28;20408;-70
2023/10/23 03:20:04;;;;;;;4.78;3.97;;;10.20;99.90;;;;;;5069289;28;20432;-66
2023/10/23 03:22:32;;;;;;;5.73;3.63;;;10.20;99.90;;;;;;5067726;28;20506;-69
2023/10/23 03:24:59;;;;;;;6.00;4.10;;;10.20;99.90;;;;;;5068471;28;20415;-68
2023/10/23 03:27:27;;;;;;;4.20;3.60;;;10.20;99.90;;;;;;5069692;28;20411;-67
2023/10/23 03:29:54;;;;;;;5.10;4.10;;;10.20;99.90;;;;;;5069666;28;20781;-71
2023/10/23 03:32:21;;;;;;;5.30;3.80;;;10.20;99.90;;;;;;5068383;28;20453;-69
2023/10/23 03:34:48;;;;;;;5.30;3.60;;;10.10;99.90;;;;;;5069303;28;20438;-67
2023/10/23 03:37:15;;;;;;;4.95;3.63;;;10.10;99.90;;;;;;5068329;28;20923;-68
2023/10/23 03:39:42;;;;;;;5.63;3.85;;;10.10;99.90;;;;;;5069113;28;20431;-68
2023/10/23 03:42:09;;;;;;;6.67;3.93;;;10.10;99.90;;;;;;5068142;28;20598;-69
2023/10/23 03:44:37;;;;;;;5.90;3.88;;;10.10;99.90;;;;;;5068458;28;20497;-69
2023/10/23 03:47:04;;;;;;;4.60;3.40;;;10.10;99.90;;;;;;5068552;28;20435;-67
2023/10/23 03:49:31;;;;;;;5.78;4.05;;;10.10;99.90;;;;;;5069085;28;20417;-68
2023/10/23 03:51:58;;;;;;;5.35;3.70;;;10.10;99.90;;;;;;5065935;28;21105;-68
2023/10/23 03:54:24;;;;;;;4.65;3.72;;;10.10;99.90;;;;;;5067590;28;20435;-68
2023/10/23 03:56:51;;;;;;;5.88;3.97;;;10.10;99.90;;;;;;5069220;28;20909;-68
2023/10/23 03:59:18;;;;;;;4.35;3.70;;;10.10;99.90;;;;;;5068790;28;20435;-69
2023/10/23 04:01:46;;;;;;;7.10;3.92;;;10.00;99.90;;;;;;5067914;28;20431;-68
2023/10/23 04:04:14;;;;;;;6.30;3.75;;;10.00;99.90;;;;;;5066741;28;20756;-68
2023/10/23 04:06:40;;;;;;;4.00;3.30;;;10.00;99.90;;;;;;5067044;28;20811;-67
2023/10/23 04:09:07;;;;;;;5.72;3.60;;;10.00;99.90;;;;;;5070062;28;20432;-68
2023/10/23 04:11:34;;;;;;;4.13;3.60;;;10.00;99.90;;;;;;5066137;28;20432;-69
2023/10/23 04:14:01;;;;;;;5.28;3.75;;;10.00;99.90;;;;;;5068285;28;20426;-69
2023/10/23 04:16:27;;;;;;;4.20;3.20;;;9.90;99.90;;;;;;5061389;28;20934;-68
2023/10/23 04:18:57;;;;;;;5.28;3.80;;;10.00;99.90;;;;;;5067221;28;20438;-69
2023/10/23 04:21:24;;;;;;;4.03;3.20;;;9.90;99.90;;;;;;5066091;28;20910;-67
2023/10/23 04:23:50;;;;;;;5.10;3.90;;;9.90;99.90;;;;;;5072994;28;20407;-66
2023/10/23 04:26:17;;;;;;;5.53;3.90;;;9.90;99.90;;;;;;5068740;28;20450;-68
2023/10/23 04:28:44;;;;;;;4.03;3.50;;;9.90;99.90;;;;;;5074683;28;20412;-68
2023/10/23 04:31:11;;;;;;;5.07;3.90;;;9.80;99.90;;;;;;5066419;28;20424;-67
2023/10/23 04:33:38;;;;;;;4.00;3.22;;;9.80;99.90;;;;;;5067166;28;20794;-69
2023/10/23 04:36:06;;;;;;;5.70;3.65;;;9.80;99.90;;;;;;5064468;28;20438;-70
2023/10/23 04:38:33;;;;;;;5.28;3.30;;;9.80;99.90;;;;;;5064521;28;20419;-69
2023/10/23 04:41:00;;;;;;;5.10;3.03;;;9.80;99.90;;;;;;5065096;28;20438;-69
2023/10/23 04:43:27;;;;;;;4.50;3.20;;;9.80;99.90;;;;;;5067697;28;20420;-69
2023/10/23 04:45:56;;;;;;;4.07;3.20;;;9.70;99.90;;;;;;5066417;28;20458;-70
2023/10/23 04:48:23;;;;;;;4.30;3.13;;;9.70;99.90;;;;;;5067127;28;20419;-70
2023/10/23 04:50:51;;;;;;;4.75;3.22;;;9.70;99.90;;;;;;5066113;28;20953;-70
2023/10/23 04:53:19;;;;;;;3.60;3.20;;;9.70;99.90;;;;;;5066043;28;20427;-69
2023/10/23 04:55:46;;;;;;;6.93;3.17;;;9.70;99.90;;;;;;5066668;28;20429;-71
2023/10/23 04:58:12;;;;;;;5.18;3.20;;;9.60;99.90;;;;;;5067345;28;20454;-70
2023/10/23 05:00:39;;;;;;;3.90;3.15;;;9.60;99.90;;;;;;5063705;28;20796;-70
2023/10/23 05:03:08;;;;;;;4.35;3.40;;;9.60;99.90;;;;;;5061737;28;20431;-70
2023/10/23 05:05:35;;;;;;;5.70;3.70;;;9.60;99.90;;;;;;5065288;28;20843;-70
2023/10/23 05:08:03;;;;;;;5.85;3.90;;;9.60;99.90;;;;;;5066824;28;20507;-69
2023/10/23 05:10:31;;;;;;;5.95;3.80;;;9.60;99.90;;;;;;5067633;28;20485;-70
2023/10/23 05:12:58;;;;;;;4.72;3.80;;;9.60;99.90;;;;;;5066892;28;20797;-70
2023/10/23 05:15:25;;;;;;;8.30;4.70;;;9.60;99.90;;;;;;5065655;28;20435;-70
2023/10/23 05:17:52;;;;;;;6.90;4.60;;;9.60;99.90;;;;;;5070064;28;20427;-71
2023/10/23 05:20:18;;;;;;;5.97;4.50;;;9.60;99.90;;;;;;5067443;28;20432;-70
2023/10/23 05:22:45;;;;;;;5.88;4.88;;;9.60;99.90;;;;;;5072967;28;20431;-70
2023/10/23 05:25:12;;;;;;;5.53;4.38;;;9.50;99.90;;;;;;5065046;28;20446;-70
2023/10/23 05:27:40;;;;;;;7.00;5.00;;;9.50;99.90;;;;;;5067236;28;20446;-70
2023/10/23 05:30:07;;;;;;;5.40;4.90;;;9.50;99.90;;;;;;5065451;28;20431;-70
2023/10/23 05:32:35;;;;;;;5.30;4.80;;;9.50;99.90;;;;;;5069953;28;20422;-72
2023/10/23 05:35:03;;;;;;;5.28;4.55;;;9.50;99.90;;;;;;5070307;28;20427;-70
2023/10/23 05:37:30;;;;;;;6.70;5.22;;;9.50;99.90;;;;;;5071450;28;20411;-70
2023/10/23 05:39:57;;;;;;;6.60;5.17;;;9.50;99.90;;;;;;5070100;28;20869;-70
2023/10/23 05:42:24;;;;;;;5.32;4.80;;;9.50;99.90;;;;;;5070475;28;20439;-71
2023/10/23 05:44:53;;;;;;;6.40;5.25;;;9.50;99.90;;;;;;5067803;28;20427;-70
2023/10/23 05:47:20;;;;;;;6.22;5.63;;;9.50;99.90;;;;;;5070103;28;20433;-70
2023/10/23 05:49:46;;;;;;;6.30;4.90;;;9.50;99.90;;;;;;5071418;28;20423;-70
2023/10/23 05:52:13;;;;;;;6.47;4.90;;;9.50;99.90;;;;;;5069672;28;20431;-70
2023/10/23 05:54:40;;;;;;;6.85;5.10;;;9.50;99.90;;;;;;5069797;28;20431;-70
2023/10/23 05:57:06;;;;;;;6.10;5.10;;;9.40;99.90;;;;;;5069519;28;20438;-70
2023/10/23 05:59:34;;;;;;;6.10;5.00;;;9.40;99.90;;;;;;5070700;28;20427;-71
2023/10/23 06:02:03;;;;;;;6.68;5.35;;;9.40;99.90;;;;;;5066168;28;20431;-70
2023/10/23 06:04:29;;;;;;;6.35;5.63;;;9.40;99.90;;;;;;5060212;28;20805;-70
2023/10/23 06:06:56;;;;;;;7.40;5.40;;;9.40;99.90;;;;;;5070091;28;20865;-70
2023/10/23 06:09:23;;;;;;;5.80;5.20;;;9.50;99.90;;;;;;5071161;28;20404;-71
2023/10/23 06:11:50;;;;;;;7.45;5.70;;;9.40;99.90;;;;;;5067016;28;20459;-70
2023/10/23 06:14:16;;;;;;;7.22;5.53;;;9.40;99.90;;;;;;5070249;28;20427;-71
2023/10/23 06:16:43;;;;;;;7.80;5.65;;;9.40;99.90;;;;;;5070542;28;20411;-70
2023/10/23 06:19:11;;;;;;;8.10;6.18;;;9.40;99.90;;;;;;5068812;28;20905;-70
2023/10/23 06:21:38;;;;;;;7.97;6.60;;;9.40;99.90;;;;;;5072463;28;20428;-70
2023/10/23 06:24:06;;;;;;;7.97;5.93;;;9.40;99.90;;;;;;5072762;28;20468;-71
2023/10/23 06:26:32;;;;;;;9.68;6.57;;;9.40;99.90;;;;;;5067249;28;20431;-70
2023/10/23 06:28:59;;;;;;;8.57;6.45;;;9.40;99.90;;;;;;5073150;28;20924;-71
2023/10/23 06:31:26;;;;;;;7.60;6.18;;;9.40;99.90;;;;;;5065495;28;20485;-70
2023/10/23 06:33:54;;;;;;;7.07;6.07;;;9.40;99.90;;;;;;5066337;28;20429;-70
2023/10/23 06:36:22;;;;;;;10.70;7.13;;;9.40;99.90;;;;;;5069249;28;20809;-70
2023/10/23 06:38:49;;;;;;;6.53;5.82;;;9.40;99.90;;;;;;5069475;28;20689;-70
2023/10/23 06:41:16;;;;;;;8.27;6.57;;;9.40;99.90;;;;;;5066569;28;20481;-70
2023/10/23 06:43:43;;;;;;;8.70;6.35;;;9.40;99.90;;;;;;5069594;28;20454;-71
2023/10/23 06:46:10;;;;;;;8.32;6.20;;;9.40;99.90;;;;;;5071642;28;20419;-70
2023/10/23 06:48:39;;;;;;;8.10;6.25;;;9.40;99.90;;;;;;5069837;28;20944;-70
2023/10/23 06:51:06;;;;;;;6.50;5.50;;;9.30;99.90;;;;;;5068635;28;20427;-70
2023/10/23 06:53:34;;;;;;;6.20;5.60;;;9.40;99.90;;;;;;5070834;28;20821;-70
2023/10/23 06:56:01;;;;;;;8.43;5.72;;;9.40;99.90;;;;;;5070011;28;20944;-70
2023/10/23 06:58:27;;;;;;;7.35;5.60;;;9.40;99.90;;;;;;5062658;28;20712;-70
2023/10/23 07:00:54;;;;;;;7.22;5.57;;;9.40;99.90;;;;;;5066304;28;20424;-70
2023/10/23 07:03:21;;;;;;;6.88;6.18;;;9.40;99.90;;;;;;5065343;28;20431;-70
2023/10/23 07:05:48;;;;;;;9.88;7.90;;;9.50;99.90;;;;;;5068317;28;20923;-70
2023/10/23 07:08:14;;;;;;;9.05;7.05;;;9.40;99.90;;;;;;5067658;28;20447;-71
2023/10/23 07:10:42;;;;;;;8.70;6.85;;;9.40;99.90;;;;;;5069508;28;20415;-70
2023/10/23 07:13:09;;;;;;;7.30;6.60;;;9.40;99.90;;;;;;5067515;28;20447;-70
2023/10/23 07:15:38;;;;;;;8.25;7.35;;;9.50;99.90;;;;;;5064118;28;20431;-71
2023/10/23 07:18:04;;;;;;;8.25;7.45;;;9.40;99.90;;;;;;5074666;28;20428;-70
2023/10/23 07:20:31;;;;;;;11.35;7.80;;;9.40;99.90;;;;;;5062037;28;20843;-69
2023/10/23 07:22:59;;;;;;;9.98;8.00;;;9.50;99.90;;;;;;5066889;28;20428;-69
2023/10/23 07:25:25;;;;;;;9.60;8.60;;;9.40;99.90;;;;;;5063522;28;20584;-69
2023/10/23 07:27:54;;;;;;;9.75;8.75;;;9.40;99.90;;;;;;5067644;28;20431;-70
2023/10/23 07:30:23;;;;;;;11.65;8.60;;;9.50;99.90;;;;;;5065738;28;20428;-70
2023/10/23 07:32:50;;;;;;;10.35;9.20;;;9.50;99.90;;;;;;5067897;28;20443;-70
2023/10/23 07:35:17;;;;;;;13.00;9.82;;;9.50;99.90;;;;;;5066141;28;20438;-70
2023/10/23 07:37:44;;;;;;;12.98;10.35;;;9.50;99.90;;;;;;5068999;28;20421;-70
2023/10/23 07:40:12;;;;;;;12.40;10.23;;;9.50;99.90;;;;;;5061364;28;20432;-70
2023/10/23 07:42:38;;;;;;;10.70;9.55;;;9.50;99.90;;;;;;5065220;28;20483;-69
2023/10/23 07:45:08;;;;;;;13.13;10.52;;;9.50;99.90;;;;;;5067163;28;20412;-71
2023/10/23 07:47:35;;;;;;;11.20;9.90;;;9.50;99.90;;;;;;5067710;28;20431;-70
2023/10/23 07:50:04;;;;;;;13.50;10.57;;;9.50;99.90;;;;;;5067255;28;20961;-70
2023/10/23 07:52:31;;;;;;;12.13;9.52;;;9.50;99.90;;;;;;5067367;28;20864;-70
2023/10/23 07:54:58;;;;;;;11.73;9.60;;;9.50;99.90;;;;;;5066583;28;20438;-70
2023/10/23 07:57:24;;;;;;;11.10;10.00;;;9.50;99.90;;;;;;5069076;28;20479;-69
2023/10/23 07:59:51;;;;;;;12.97;10.60;;;9.50;99.90;;;;;;5069104;28;20428;-70
2023/10/23 08:02:19;;;;;;;12.20;10.37;;;9.60;99.90;;;;;;5068094;28;20431;-69
2023/10/23 08:04:47;;;;;;;12.43;9.32;;;9.70;99.90;;;;;;5066844;28;20539;-69
2023/10/23 08:07:14;;;;;;;10.55;9.55;;;9.90;99.90;;;;;;5071363;28;20491;-70
2023/10/23 08:09:40;;;;;;;9.70;8.70;;;9.90;99.90;;;;;;5067884;28;20462;-70
2023/10/23 08:12:08;;;;;;;9.30;8.30;;;10.00;99.90;;;;;;5064815;28;20428;-69
2023/10/23 08:14:35;;;;;;;8.55;7.75;;;10.10;99.90;;;;;;5059464;28;20419;-70
2023/10/23 08:17:02;;;;;;;9.75;8.43;;;10.10;99.90;;;;;;5062914;28;20439;-70
2023/10/23 08:19:30;;;;;;;9.30;8.30;;;10.10;99.90;;;;;;5067938;28;20822;-70
2023/10/23 08:21:56;;;;;;;10.15;9.13;;;10.10;99.90;;;;;;5070086;28;20431;-70
2023/10/23 08:24:23;;;;;;;11.00;9.57;;;10.00;99.90;;;;;;5068018;28;20435;-70
2023/10/23 08:26:50;;;;;;;10.68;9.57;;;10.10;99.90;;;;;;5066497;28;20424;-70
2023/10/23 08:29:17;;;;;;;9.07;8.18;;;10.00;99.90;;;;;;5065079;28;20431;-70
2023/10/23 08:31:43;;;;;;;9.90;9.00;;;10.10;99.90;;;;;;5066575;28;20432;-70
2023/10/23 08:34:10;;;;;;;10.10;8.68;;;10.10;99.90;;;;;;5063701;28;20969;-70
2023/10/23 08:36:38;;;;;;;10.43;9.15;;;10.10;99.90;;;;;;5068092;28;20407;-71
2023/10/23 08:39:05;;;;;;;10.30;9.30;;;10.10;99.90;;;;;;5062748;28;21029;-70
2023/10/23 08:41:32;;;;;;;9.98;8.98;;;10.10;99.90;;;;;;5064393;28;20427;-70
2023/10/23 08:44:03;;;;;;;10.55;9.55;;;10.10;99.90;;;;;;5067299;28;20439;-70
2023/10/23 08:46:33;;;;;;;9.18;8.00;;;10.10;99.90;;;;;;5066335;28;20436;-71
2023/10/23 08:49:00;;;;;;;8.93;8.13;;;10.20;99.90;;;;;;5065181;28;20427;-70
2023/10/23 08:51:27;;;;;;;9.00;8.20;;;10.20;99.90;;;;;;5066843;28;20428;-71
2023/10/23 08:54:01;;;;;;;8.90;8.00;;;10.20;99.90;;;;;;5068313;28;20416;-70
2023/10/23 08:56:29;;;;;;;9.93;8.30;;;10.20;99.90;;;;;;5069526;28;20435;-69
2023/10/23 08:59:00;;;;;;;8.73;7.93;;;10.20;99.90;;;;;;5068191;28;20412;-69
2023/10/23 09:01:28;;;;;;;9.00;8.20;;;10.20;99.90;;;;;;5066881;28;20419;-68
2023/10/23 09:03:55;;;;;;;8.67;7.33;;;10.20;99.90;;;;;;5068010;28;20803;-69
2023/10/23 09:06:21;;;;;;;9.10;8.20;;;10.30;99.90;;;;;;5086128;22;20465;-72
2023/10/23 09:08:48;;;;;;;9.25;7.38;;;10.30;99.90;;;;;;5077891;28;20414;-71
2023/10/23 09:11:16;;;;;;;8.07;7.28;;;10.30;99.90;;;;;;5083688;28;20430;-72
2023/10/23 09:13:43;;;;;;;7.50;6.80;;;10.30;99.90;;;;;;5085420;28;20438;-72
2023/10/23 09:16:11;;;;;;;7.80;7.00;;;10.30;99.90;;;;;;5073469;28;20431;-73
2023/10/23 09:18:45;;;;;;;7.82;7.13;;;10.40;99.90;;;;;;5063031;28;20871;-71
2023/10/23 09:21:12;;;;;;;7.30;6.60;;;10.50;99.90;;;;;;5054000;28;20445;-71
2023/10/23 09:23:50;;;;;;;7.27;6.57;;;10.50;99.90;;;;;;5061008;28;20922;-73
2023/10/23 09:26:19;;;;;;;7.75;6.95;;;10.50;99.90;;;;;;5059092;28;20479;-71
2023/10/23 09:28:46;;;;;;;7.50;6.43;;;10.60;99.90;;;;;;5048292;28;20670;-72
2023/10/23 09:31:13;;;;;;;6.70;6.20;;;10.70;99.90;;;;;;5051322;28;21096;-71
2023/10/23 09:33:39;;;;;;;7.55;6.70;;;10.80;99.90;;;;;;5062659;28;20591;-72
2023/10/23 09:36:07;;;;;;;7.13;6.53;;;10.90;99.90;;;;;;5052501;28;20431;-71
2023/10/23 09:38:35;;;;;;;6.68;5.82;;;11.00;99.90;;;;;;5065148;28;20409;-72
2023/10/23 09:41:02;;;;;;;6.70;5.90;;;11.20;99.90;;;;;;5052765;28;20821;-73
2023/10/23 09:43:30;;;;;;;5.97;5.47;;;11.20;99.90;;;;;;5052040;28;20419;-72
2023/10/23 09:45:59;;;;;;;5.65;5.15;;;11.30;99.90;;;;;;5059742;28;20428;-72
2023/10/23 09:48:28;;;;;;;6.90;6.20;;;11.40;99.90;;;;;;5052814;28;20406;-72
2023/10/23 09:50:56;;;;;;;6.70;5.88;;;11.40;99.90;;;;;;5063430;28;20498;-72
2023/10/23 09:53:23;;;;;;;6.55;5.85;;;11.30;99.90;;;;;;5052996;28;20431;-72
2023/10/23 09:55:52;;;;;;;6.57;5.95;;;11.30;99.90;;;;;;5050980;28;20417;-72
2023/10/23 09:58:21;;;;;;;7.10;6.40;;;11.30;99.90;;;;;;5047072;28;20521;-72
2023/10/23 10:00:52;;;;;;;7.70;6.00;;;11.40;99.90;;;;;;5054214;28;20437;-73
2023/10/23 10:03:19;;;;;;;6.90;5.90;;;11.50;99.90;;;;;;5051865;28;20913;-72
2023/10/23 10:05:56;;;;;;;6.70;6.00;;;11.50;99.90;;;;;;5050798;28;21033;-72
2023/10/23 10:08:24;;;;;;;5.90;5.30;;;11.60;99.90;;;;;;5056167;28;20847;-71
2023/10/23 10:10:52;;;;;;;5.60;5.10;;;11.60;99.90;;;;;;5054386;28;20421;-71
2023/10/23 10:13:21;;;;;;;5.57;4.97;;;11.70;99.90;;;;;;5048338;28;20436;-71
2023/10/23 10:15:51;;;;;;;5.53;4.93;;;11.70;99.90;;;;;;5058881;28;20426;-72
2023/10/23 10:18:18;;;;;;;5.90;5.10;;;11.80;99.90;;;;;;5047591;28;20527;-71
2023/10/23 10:20:48;;;;;;;5.20;4.70;;;11.80;99.90;;;;;;5059332;28;20430;-72
2023/10/23 10:23:16;;;;;;;5.32;4.82;;;11.90;99.90;;;;;;5059875;28;20441;-71
2023/10/23 10:25:46;;;;;;;5.82;4.60;;;12.00;99.90;;;;;;5061302;28;20433;-73
2023/10/23 10:28:14;;;;;;;7.15;5.03;;;12.10;99.90;;;;;;5054952;28;20439;-72
2023/10/23 10:30:45;;;;;;;6.03;4.57;;;12.20;99.90;;;;;;5058125;28;20478;-71
2023/10/23 10:33:17;;;;;;;5.57;4.20;;;12.30;99.90;;;;;;5057153;28;20500;-72
2023/10/23 10:35:50;;;;;;;5.07;3.80;;;12.50;99.90;;;;;;5053792;28;20762;-71
2023/10/23 10:38:21;;;;;;;3.53;3.20;;;12.50;99.90;;;;;;5061630;28;20732;-71
2023/10/23 10:40:58;;;;;;;3.30;3.10;;;12.70;99.90;;;;;;5050173;28;20449;-71
2023/10/23 10:43:25;;;;;;;3.10;2.80;;;12.70;99.90;;;;;;5053390;28;20865;-71
2023/10/23 10:45:55;;;;;;;3.53;3.00;;;12.80;99.90;;;;;;5046059;28;20498;-71
2023/10/23 10:48:23;;;;;;;4.57;3.28;;;12.80;99.90;;;;;;5057026;28;20495;-71
2023/10/23 10:50:50;;;;;;;4.75;3.05;;;12.90;99.90;;;;;;5061976;28;20438;-71
2023/10/23 10:53:17;;;;;;;4.25;3.30;;;12.90;99.90;;;;;;5060217;28;20429;-75
2023/10/23 10:55:45;;;;;;;4.00;3.03;;;13.10;99.90;;;;;;5055254;28;20440;-71
2023/10/23 10:58:12;;;;;;;3.60;2.78;;;13.20;99.90;;;;;;5060666;28;20429;-71
2023/10/23 11:00:39;;;;;;;3.22;2.60;;;13.30;99.90;;;;;;5046857;28;20425;-72
2023/10/23 11:03:07;;;;;;;3.87;3.10;;;13.30;99.90;;;;;;5069598;28;20480;-72
2023/10/23 11:05:37;;;;;;;4.00;2.70;;;13.30;99.90;;;;;;5054956;28;20873;-71
2023/10/23 11:08:05;;;;;;;3.28;2.72;;;13.40;99.90;;;;;;5058803;28;20416;-71
2023/10/23 11:10:32;;;;;;;4.18;3.40;;;13.40;99.90;;;;;;5063530;28;20459;-69
2023/10/23 11:13:00;;;;;;;4.00;2.50;;;13.40;99.90;;;;;;5061074;28;20427;-67
2023/10/23 11:15:27;;;;;;;3.40;2.80;;;13.50;99.90;;;;;;5057004;28;20479;-67
2023/10/23 11:17:53;;;;;;;3.53;2.80;;;13.60;99.90;;;;;;5069317;28;20439;-72
2023/10/23 11:20:20;;;;;;;3.83;2.90;;;13.70;99.90;;;;;;5053269;28;20841;-71
2023/10/23 11:22:48;;;;;;;3.60;2.90;;;13.70;99.90;;;;;;5057131;28;20417;-72
2023/10/23 11:25:17;;;;;;;3.55;2.80;;;13.70;99.90;;;;;;5053201;28;20512;-71
2023/10/23 11:27:46;;;;;;;3.13;2.70;;;13.70;99.90;;;;;;5057795;28;20411;-72
2023/10/23 11:30:13;;;;;;;3.33;2.80;;;13.70;99.90;;;;;;5054360;28;20441;-73
2023/10/23 11:32:40;;;;;;;3.60;2.80;;;13.70;99.90;;;;;;5053499;28;20427;-73
2023/10/23 11:35:07;;;;;;;3.20;2.80;;;13.80;99.90;;;;;;5053089;28;20911;-71
2023/10/23 11:37:37;;;;;;;4.00;2.70;;;13.80;99.90;;;;;;5055289;28;20522;-71
2023/10/23 11:40:06;;;;;;;3.45;2.70;;;13.80;99.90;;;;;;5059154;28;20436;-72
2023/10/23 11:42:43;;;;;;;3.83;2.63;;;13.80;99.90;;;;;;5049326;28;20432;-72
2023/10/23 11:45:11;;;;;;;2.70;2.47;;;13.80;99.90;;;;;;5047872;28;20437;-73
2023/10/23 11:47:38;;;;;;;4.88;2.63;;;13.90;99.90;;;;;;5058210;28;20437;-72
2023/10/23 11:50:10;;;;;;;2.70;2.40;;;13.90;99.90;;;;;;5044206;28;20413;-71
2023/10/23 11:52:41;;;;;;;3.20;2.40;;;14.00;99.90;;;;;;5059310;28;20474;-71
2023/10/23 11:55:10;;;;;;;3.20;2.00;;;14.00;99.90;;;;;;5048547;28;20574;-71
2023/10/23 11:57:40;;;;;;;2.75;2.10;;;14.10;99.90;;;;;;5048581;28;20555;-71
2023/10/23 12:00:12;;;;;;;3.33;1.90;;;14.10;99.90;;;;;;5044820;28;20512;-72
2023/10/23 12:02:40;;;;;;;2.47;1.90;;;14.10;99.90;;;;;;5053510;28;20498;-71
2023/10/23 12:05:10;;;;;;;3.35;2.30;;;14.00;99.90;;;;;;5048117;28;20490;-72
2023/10/23 12:07:39;;;;;;;3.00;2.00;;;14.00;99.90;;;;;;5045956;28;20795;-71
2023/10/23 12:10:07;;;;;;;3.10;2.00;;;14.00;99.90;;;;;;5056051;28;20903;-72
2023/10/23 12:12:36;;;;;;;3.25;1.90;;;13.90;99.90;;;;;;5056817;28;20449;-72
2023/10/23 12:15:04;;;;;;;3.30;1.80;;;14.00;99.90;;;;;;5043855;28;20782;-71
2023/10/23 12:17:31;;;;;;;2.95;1.88;;;14.00;99.90;;;;;;5042996;28;20494;-72
2023/10/23 12:19:57;;;;;;;3.92;1.90;;;14.00;99.90;;;;;;5049377;28;20452;-71
2023/10/23 12:22:24;;;;;;;2.40;1.63;;;14.00;99.90;;;;;;5048343;28;20422;-71
2023/10/23 12:24:51;;;;;;;2.97;1.80;;;14.00;99.90;;;;;;5053997;28;20500;-70
2023/10/23 12:27:18;;;;;;;3.42;1.80;;;14.10;99.90;;;;;;5050050;28;20431;-71
2023/10/23 12:29:46;;;;;;;2.67;1.70;;;14.10;99.90;;;;;;5056023;28;20495;-70
2023/10/23 12:32:14;;;;;;;2.80;1.90;;;14.20;99.90;;;;;;5045808;28;20824;-71
2023/10/23 12:34:41;;;;;;;2.90;1.75;;;14.40;99.90;;;;;;5053679;28;20427;-70
2023/10/23 12:37:07;;;;;;;2.08;1.60;;;14.40;99.90;;;;;;5062359;28;20934;-71
2023/10/23 12:39:34;;;;;;;3.38;2.00;;;14.50;99.90;;;;;;5055777;28;20475;-71
2023/10/23 12:42:01;;;;;;;4.00;1.60;;;14.60;99.90;;;;;;5060472;28;20901;-70
2023/10/23 12:44:28;;;;;;;3.15;1.55;;;14.70;99.80;;;;;;5043960;28;20429;-68
2023/10/23 12:46:56;;;;;;;3.70;1.50;;;14.70;99.30;;;;;;5045225;28;20429;-68
2023/10/23 12:49:23;;;;;;;3.00;1.50;;;14.80;99.40;;;;;;5056920;28;20409;-67